Time;durP1;ratioP1;P1;durP2;ratioP2;P2;SDS_P1;SDS_P2;PMS_P1;PMS_P2;Temp;Humidity;BMP_temperature;BMP_pressure;BME280_temperature;BME280_humidity;BME280_pressure;Samples;Min_cycle;Max_cycle;Signal;HPM_P1;HPM_P2
2021/11/19 00:01:48;;;;;;;4.47;3.07;;;;;;;8.68;100.00;101579.47;5030961;28;20176;-70
2021/11/19 00:04:14;;;;;;;11.90;9.03;;;;;;;8.71;100.00;101587.09;5030657;28;20218;-70
2021/11/19 00:06:39;;;;;;;5.97;5.47;;;;;;;8.73;100.00;101598.53;5030777;28;20666;-71
2021/11/19 00:09:06;;;;;;;8.47;6.83;;;;;;;8.76;100.00;101598.00;5030346;28;20235;-70
2021/11/19 00:11:34;;;;;;;9.23;8.33;;;;;;;8.77;100.00;101577.84;5031108;28;20191;-70
2021/11/19 00:14:01;;;;;;;6.53;6.03;;;;;;;8.78;100.00;101595.81;5030408;28;20623;-70
2021/11/19 00:16:27;;;;;;;11.17;10.10;;;;;;;8.80;100.00;101562.84;5030631;28;20216;-70
2021/11/19 00:18:54;;;;;;;13.00;11.43;;;;;;;8.81;100.00;101589.81;5030555;28;20226;-69
2021/11/19 00:21:21;;;;;;;3.60;2.37;;;;;;;8.81;100.00;101600.72;5030468;28;20210;-70
2021/11/19 00:23:47;;;;;;;4.57;4.27;;;;;;;8.81;100.00;101589.81;5030390;28;20199;-69
2021/11/19 00:26:14;;;;;;;4.60;4.20;;;;;;;8.80;100.00;101581.91;5030512;28;20179;-70
2021/11/19 00:28:40;;;;;;;5.97;5.43;;;;;;;8.82;100.00;101612.44;5030574;28;20200;-70
2021/11/19 00:31:06;;;;;;;3.67;3.37;;;;;;;8.81;100.00;101608.88;5030437;28;20179;-70
2021/11/19 00:33:33;;;;;;;3.70;3.40;;;;;;;8.81;100.00;101595.25;5030508;28;20649;-69
2021/11/19 00:35:59;;;;;;;6.07;5.47;;;;;;;8.84;100.00;101610.28;5030410;28;20259;-70
2021/11/19 00:38:27;;;;;;;4.30;3.97;;;;;;;8.85;100.00;101611.91;5030424;28;20255;-70
2021/11/19 00:40:58;;;;;;;6.50;4.60;;;;;;;8.84;100.00;101592.03;5024619;28;20188;-70
2021/11/19 00:43:25;;;;;;;9.80;7.07;;;;;;;8.84;100.00;101600.19;5016981;28;20187;-69
2021/11/19 00:45:51;;;;;;;8.93;8.23;;;;;;;8.85;100.00;101587.38;5010396;28;20189;-70
2021/11/19 00:48:18;;;;;;;10.70;6.77;;;;;;;8.88;100.00;101605.91;5010489;28;20189;-71
2021/11/19 00:50:51;;;;;;;5.93;4.10;;;;;;;8.89;100.00;101592.00;5010571;28;20227;-70
2021/11/19 00:53:17;;;;;;;3.70;3.37;;;;;;;8.90;100.00;101610.00;5010816;28;20267;-70
2021/11/19 00:55:43;;;;;;;5.97;4.70;;;;;;;8.93;100.00;101598.53;5010665;28;20271;-70
2021/11/19 00:58:09;;;;;;;7.03;5.30;;;;;;;8.95;100.00;101596.38;5010688;28;20181;-70
2021/11/19 01:00:43;;;;;;;8.30;7.13;;;;;;;8.98;100.00;101624.19;5010582;28;20278;-69
2021/11/19 01:03:09;;;;;;;7.17;5.67;;;;;;;8.99;100.00;101610.28;5010600;28;20184;-70
2021/11/19 01:05:35;;;;;;;4.93;4.50;;;;;;;9.02;100.00;101619.81;5010129;28;20196;-70
2021/11/19 01:08:00;;;;;;;3.00;2.80;;;;;;;9.04;100.00;101593.09;5010506;28;20180;-70
2021/11/19 01:10:31;;;;;;;7.03;6.43;;;;;;;9.04;100.00;101623.09;5010395;28;20219;-70
2021/11/19 01:12:57;;;;;;;8.10;7.37;;;;;;;9.03;100.00;101638.63;5013220;28;20184;-69
2021/11/19 01:15:34;;;;;;;2.97;2.87;;;;;;;9.03;100.00;101622.28;5029977;28;20172;-70
2021/11/19 01:18:11;;;;;;;8.03;5.60;;;;;;;9.04;100.00;101636.72;5030181;28;20537;-70
2021/11/19 01:20:42;;;;;;;3.97;3.63;;;;;;;9.05;100.00;101630.19;5031528;28;20183;-70
2021/11/19 01:23:10;;;;;;;2.70;2.50;;;;;;;9.07;100.00;101619.81;5033878;28;20542;-70
2021/11/19 01:25:37;;;;;;;9.70;5.53;;;;;;;9.06;100.00;101634.53;5033431;28;20536;-70
2021/11/19 01:28:03;;;;;;;5.93;5.53;;;;;;;9.08;100.00;101646.00;5033481;28;20183;-70
2021/11/19 01:30:36;;;;;;;5.90;5.40;;;;;;;9.08;100.00;101637.81;5033534;28;20203;-72
2021/11/19 01:33:03;;;;;;;4.57;4.17;;;;;;;9.08;100.00;101637.81;5033503;28;20180;-70
2021/11/19 01:35:29;;;;;;;9.83;3.73;;;;;;;9.08;100.00;101640.53;5033594;28;20683;-70
2021/11/19 01:37:54;;;;;;;5.53;5.10;;;;;;;9.06;100.00;101656.34;5033288;28;20179;-70
2021/11/19 01:40:24;;;;;;;2.07;1.90;;;;;;;9.07;100.00;101658.81;5033361;28;20360;-70
2021/11/19 01:42:52;;;;;;;4.03;2.23;;;;;;;9.08;100.00;101646.00;5033012;28;20647;-70
2021/11/19 01:45:34;;;;;;;4.13;3.77;;;;;;;9.07;100.00;101655.25;5033050;28;20203;-70
2021/11/19 01:48:02;;;;;;;3.33;2.63;;;;;;;9.07;100.00;101655.25;5032650;28;20178;-70
2021/11/19 01:50:53;;;;;;;2.83;2.63;;;;;;;9.07;100.00;101660.72;5033050;28;20203;-69
2021/11/19 01:56:47;;;;;;;3.80;3.50;;;;;;;9.05;100.00;101662.88;4979794;23;20348;-72
2021/11/19 01:59:29;;;;;;;10.17;3.67;;;;;;;9.04;100.00;101650.34;4973415;28;20193;-72
2021/11/19 02:02:02;;;;;;;6.63;4.50;;;;;;;9.04;100.00;101663.97;4967789;28;20264;-72
2021/11/19 02:04:33;;;;;;;5.63;4.87;;;;;;;9.04;100.00;101681.16;4971901;28;20213;-72
2021/11/19 02:07:07;;;;;;;2.83;2.70;;;;;;;9.03;100.00;101651.44;4973620;28;20217;-72
2021/11/19 02:09:35;;;;;;;10.70;3.30;;;;;;;9.02;100.00;101680.63;4970853;28;20206;-72
2021/11/19 02:12:05;;;;;;;7.03;5.90;;;;;;;9.03;100.00;101657.72;4973894;28;20182;-72
2021/11/19 02:14:40;;;;;;;8.70;6.43;;;;;;;9.03;100.00;101668.63;4970865;28;20193;-72
2021/11/19 02:17:07;;;;;;;7.07;6.40;;;;;;;9.03;100.00;101662.34;4972547;28;20181;-72
2021/11/19 02:19:50;;;;;;;5.67;5.20;;;;;;;9.01;100.00;101670.81;4972991;28;20177;-72
2021/11/19 02:22:26;;;;;;;6.10;5.60;;;;;;;9.00;100.00;101663.72;4973753;28;20268;-72
2021/11/19 02:25:15;;;;;;;3.60;3.30;;;;;;;9.02;100.00;101666.16;4973396;28;20170;-72
2021/11/19 02:28:03;;;;;;;3.67;3.47;;;;;;;9.02;100.00;101652.53;4973839;28;20213;-72
2021/11/19 02:30:48;;;;;;;3.57;3.27;;;;;;;9.01;100.00;101654.44;4972536;28;20253;-72
2021/11/19 02:33:15;;;;;;;7.03;5.00;;;;;;;8.99;100.00;101647.63;4973147;28;20224;-72
2021/11/19 02:35:47;;;;;;;5.03;2.47;;;;;;;8.95;100.00;101634.53;4968969;28;20182;-72
2021/11/19 02:38:13;;;;;;;8.57;2.87;;;;;;;8.94;100.00;101660.16;4969990;28;20637;-72
2021/11/19 02:40:42;;;;;;;4.27;3.27;;;;;;;8.93;100.00;101657.69;4973546;28;20186;-72
2021/11/19 02:43:13;;;;;;;4.07;3.77;;;;;;;8.93;100.00;101641.34;4973388;28;20188;-72
2021/11/19 02:45:43;;;;;;;4.60;3.57;;;;;;;8.92;100.00;101662.31;4973392;28;20637;-72
2021/11/19 02:48:12;;;;;;;7.13;6.07;;;;;;;8.93;100.00;101658.50;4973307;28;20236;-72
2021/11/19 02:50:39;;;;;;;4.33;3.93;;;;;;;8.93;100.00;101646.78;4973380;28;20645;-72
2021/11/19 02:53:05;;;;;;;4.00;3.70;;;;;;;8.92;100.00;101645.16;4973412;28;20186;-72
2021/11/19 02:55:36;;;;;;;3.33;3.07;;;;;;;8.93;100.00;101660.41;4969208;28;20198;-72
2021/11/19 02:58:03;;;;;;;6.87;2.53;;;;;;;8.91;100.00;101632.63;4960918;28;20209;-72
2021/11/19 03:00:40;;;;;;;6.13;3.40;;;;;;;8.91;100.00;101619.00;4958678;28;20183;-72
2021/11/19 03:03:05;;;;;;;2.33;2.23;;;;;;;8.92;100.00;101648.69;4954499;28;20170;-72
2021/11/19 03:05:31;;;;;;;3.93;2.10;;;;;;;8.97;100.00;101641.59;4953846;28;20187;-72
2021/11/19 03:07:57;;;;;;;3.43;3.23;;;;;;;9.00;100.00;101641.09;4954358;28;20183;-72
2021/11/19 03:10:45;;;;;;;5.83;2.93;;;;;;;9.03;100.00;101646.81;4953737;28;20210;-72
2021/11/19 03:13:12;;;;;;;2.67;2.47;;;;;;;9.06;100.00;101631.81;4953948;28;20186;-72
2021/11/19 03:15:43;;;;;;;4.43;3.97;;;;;;;9.08;100.00;101646.00;4953337;28;20776;-72
2021/11/19 03:18:11;;;;;;;4.37;4.07;;;;;;;9.10;100.00;101641.91;4953601;28;20269;-72
2021/11/19 03:20:37;;;;;;;3.93;3.63;;;;;;;9.13;100.00;101635.09;4953487;28;20229;-72
2021/11/19 03:23:03;;;;;;;7.70;6.93;;;;;;;9.15;100.00;101624.75;4953593;28;20186;-72
2021/11/19 03:25:32;;;;;;;4.87;4.37;;;;;;;9.16;100.00;101638.09;4953477;28;20266;-72
2021/11/19 03:27:58;;;;;;;2.93;2.63;;;;;;;9.19;100.00;101628.53;4953509;28;20225;-72
2021/11/19 03:30:25;;;;;;;4.93;4.40;;;;;;;9.19;100.00;101625.81;4968117;28;20635;-72
2021/11/19 03:32:51;;;;;;;3.40;3.10;;;;;;;9.20;100.00;101647.34;4953260;28;20537;-72
2021/11/19 03:35:19;;;;;;;7.73;3.00;;;;;;;9.20;100.00;101647.34;4953001;28;20194;-72
2021/11/19 03:37:47;;;;;;;4.67;4.27;;;;;;;9.21;100.00;101635.34;4953233;28;20183;-72
2021/11/19 03:40:16;;;;;;;6.10;4.63;;;;;;;9.23;100.00;101637.81;4953390;28;20190;-72
2021/11/19 03:42:42;;;;;;;4.03;3.73;;;;;;;9.26;100.00;101645.47;4952680;28;20572;-72
2021/11/19 03:45:11;;;;;;;3.00;2.70;;;;;;;9.29;100.00;101661.28;4953304;28;20178;-72
2021/11/19 03:47:41;;;;;;;12.23;4.60;;;;;;;9.32;100.00;101633.47;4952902;28;20183;-72
2021/11/19 03:50:13;;;;;;;3.53;3.33;;;;;;;9.33;100.00;101643.28;4953223;28;20206;-72
2021/11/19 03:52:40;;;;;;;3.73;3.43;;;;;;;9.36;100.00;101669.19;4953283;28;20194;-72
2021/11/19 03:55:10;;;;;;;4.10;3.80;;;;;;;9.36;100.00;101645.44;4952720;28;20175;-72
2021/11/19 03:57:35;;;;;;;6.57;6.07;;;;;;;9.39;100.00;101649.53;4953415;28;20645;-72
2021/11/19 04:00:00;;;;;;;7.13;6.53;;;;;;;9.41;100.00;101661.81;4952872;28;20174;-72
2021/11/19 04:02:28;;;;;;;3.03;2.77;;;;;;;9.42;100.00;101658.00;4952966;28;20715;-72
2021/11/19 04:04:54;;;;;;;3.50;3.20;;;;;;;9.43;100.00;101659.63;4967508;28;20186;-72
2021/11/19 04:07:20;;;;;;;4.20;3.17;;;;;;;9.43;100.00;101656.91;4952795;28;20170;-72
2021/11/19 04:09:47;;;;;;;4.50;4.10;;;;;;;9.43;100.00;101665.09;4952729;28;20268;-72
2021/11/19 04:12:14;;;;;;;2.33;2.17;;;;;;;9.45;100.00;101641.09;4953146;28;20174;-72
2021/11/19 04:14:40;;;;;;;4.83;3.30;;;;;;;9.46;100.00;101648.19;4952847;28;20269;-72
2021/11/19 04:17:06;;;;;;;3.20;2.90;;;;;;;9.48;100.00;101645.16;4952953;28;20619;-72
2021/11/19 04:19:32;;;;;;;2.57;2.17;;;;;;;9.47;100.00;101674.34;4952902;28;20174;-72
2021/11/19 04:22:02;;;;;;;4.37;3.97;;;;;;;9.47;100.00;101674.34;4952622;28;20245;-72
2021/11/19 04:24:33;;;;;;;4.93;4.47;;;;;;;9.51;100.00;101669.97;4952582;28;20178;-72
2021/11/19 04:26:58;;;;;;;3.03;2.33;;;;;;;9.52;100.00;101676.25;4952429;28;20186;-72
2021/11/19 04:29:24;;;;;;;2.33;2.23;;;;;;;9.52;100.00;101668.06;4952575;28;20214;-72
2021/11/19 04:31:50;;;;;;;2.07;1.77;;;;;;;9.52;100.00;101655.25;4952635;28;20622;-72
2021/11/19 04:34:16;;;;;;;4.17;3.87;;;;;;;9.51;100.00;101669.97;4952556;28;20181;-72
2021/11/19 04:36:42;;;;;;;3.00;2.80;;;;;;;9.55;100.00;101681.19;4952307;28;20175;-72
2021/11/19 04:39:10;;;;;;;5.63;5.13;;;;;;;9.56;100.00;101662.91;4952551;28;20201;-72
2021/11/19 04:41:35;;;;;;;3.63;3.40;;;;;;;9.53;100.00;101683.34;4967200;28;20278;-72
2021/11/19 04:44:02;;;;;;;3.40;3.07;;;;;;;9.51;100.00;101672.72;4952484;28;20257;-72
2021/11/19 04:46:27;;;;;;;4.17;3.80;;;;;;;9.48;100.00;101695.09;4952247;28;20175;-72
2021/11/19 04:48:53;;;;;;;2.20;2.03;;;;;;;9.46;100.00;101671.91;4969454;28;20190;-72
2021/11/19 04:51:23;;;;;;;1.43;1.33;;;;;;;9.45;100.00;101687.47;4971390;28;20194;-72
2021/11/19 04:53:49;;;;;;;2.00;1.33;;;;;;;9.43;100.00;101688.81;4971493;28;20182;-72
2021/11/19 04:56:15;;;;;;;4.50;3.27;;;;;;;9.40;100.00;101673.84;4973318;28;20216;-72
2021/11/19 04:58:41;;;;;;;3.20;2.50;;;;;;;9.39;100.00;101685.00;4967299;28;20256;-72
2021/11/19 05:01:12;;;;;;;3.47;3.17;;;;;;;9.37;100.00;101696.16;4975383;28;20209;-72
2021/11/19 05:03:37;;;;;;;4.27;3.97;;;;;;;9.35;100.00;101689.34;4974391;28;20261;-72
2021/11/19 05:06:03;;;;;;;2.30;2.20;;;;;;;9.35;100.00;101698.34;4975096;28;20641;-72
2021/11/19 05:08:30;;;;;;;2.40;2.20;;;;;;;9.33;100.00;101686.91;4975010;28;20567;-72
2021/11/19 05:10:57;;;;;;;6.07;5.57;;;;;;;9.36;100.00;101699.19;4975087;28;20178;-72
2021/11/19 05:13:25;;;;;;;9.10;4.20;;;;;;;9.36;100.00;101694.53;4974989;28;20182;-72
2021/11/19 05:15:52;;;;;;;5.33;4.83;;;;;;;9.35;100.00;101706.53;4973564;28;20185;-72
2021/11/19 05:18:19;;;;;;;3.17;2.80;;;;;;;9.35;100.00;101703.00;4974828;28;20533;-72
2021/11/19 05:20:45;;;;;;;4.23;3.83;;;;;;;9.32;100.00;101688.00;4974774;28;20189;-72
2021/11/19 05:23:10;;;;;;;5.20;4.70;;;;;;;9.31;100.00;101691.81;4974925;28;20174;-72
2021/11/19 05:25:39;;;;;;;5.77;4.20;;;;;;;9.30;100.00;101701.09;4974472;28;20173;-75
2021/11/19 05:28:05;;;;;;;3.50;3.20;;;;;;;9.30;100.00;101695.63;4974888;28;20181;-72
2021/11/19 05:30:30;;;;;;;4.03;3.07;;;;;;;9.30;100.00;101711.19;4974713;28;20665;-72
2021/11/19 05:32:56;;;;;;;4.43;3.97;;;;;;;9.29;100.00;101715.81;4974603;28;20174;-72
2021/11/19 05:35:23;;;;;;;3.23;3.07;;;;;;;9.30;100.00;101698.38;4974385;28;20185;-72
2021/11/19 05:37:48;;;;;;;5.50;5.00;;;;;;;9.29;100.00;101694.00;4974602;28;20649;-73
2021/11/19 05:40:17;;;;;;;5.33;4.83;;;;;;;9.29;100.00;101715.81;4974635;28;20182;-72
2021/11/19 05:42:43;;;;;;;4.60;4.13;;;;;;;9.30;100.00;101717.47;4974554;28;20190;-72
2021/11/19 05:45:10;;;;;;;4.03;3.83;;;;;;;9.31;100.00;101716.38;4974275;28;20166;-73
2021/11/19 05:47:36;;;;;;;11.27;6.10;;;;;;;9.30;100.00;101703.81;4974398;28;20699;-72
2021/11/19 05:50:04;;;;;;;5.87;4.37;;;;;;;9.30;100.00;101703.81;4974255;28;20305;-72
2021/11/19 05:52:30;;;;;;;9.30;6.37;;;;;;;9.32;100.00;101714.44;4974330;28;20614;-72
2021/11/19 05:54:56;;;;;;;3.93;3.60;;;;;;;9.33;100.00;101707.91;4974004;28;20177;-73
2021/11/19 05:57:22;;;;;;;6.07;5.50;;;;;;;9.33;100.00;101710.63;4973337;28;20182;-75
2021/11/19 05:59:47;;;;;;;4.00;3.73;;;;;;;9.34;100.00;101725.91;4974249;28;20181;-72
2021/11/19 06:02:16;;;;;;;3.60;3.30;;;;;;;9.34;100.00;101728.63;4974186;28;20178;-72
2021/11/19 06:04:42;;;;;;;3.07;2.10;;;;;;;9.34;100.00;101731.38;4974086;28;20626;-72
2021/11/19 06:07:07;;;;;;;4.07;3.60;;;;;;;9.37;100.00;101719.91;4973757;28;20181;-73
2021/11/19 06:09:33;;;;;;;4.43;4.03;;;;;;;9.36;100.00;101716.34;4973945;28;20193;-73
2021/11/19 06:12:07;;;;;;;4.03;3.73;;;;;;;9.37;100.00;101723.44;4974183;28;20672;-72
2021/11/19 06:14:32;;;;;;;5.27;4.70;;;;;;;9.38;100.00;101733.25;4973900;28;20201;-72
2021/11/19 06:17:03;;;;;;;3.03;2.23;;;;;;;9.40;100.00;101749.34;4973964;28;20621;-72
2021/11/19 06:19:34;;;;;;;6.70;6.17;;;;;;;9.39;100.00;101740.34;4974270;28;20169;-72
2021/11/19 06:22:22;;;;;;;4.20;3.83;;;;;;;9.42;100.00;101749.94;4974238;28;20257;-72
2021/11/19 06:24:50;;;;;;;4.20;3.90;;;;;;;9.42;100.00;101739.84;4973234;28;20225;-73
2021/11/19 06:27:22;;;;;;;2.40;2.20;;;;;;;9.42;100.00;101730.84;4973698;28;20174;-72
2021/11/19 06:29:51;;;;;;;4.57;4.17;;;;;;;9.43;100.00;101743.38;4973685;28;20213;-73
2021/11/19 06:32:16;;;;;;;3.23;3.03;;;;;;;9.43;100.00;101754.28;4973616;28;20173;-72
2021/11/19 06:34:42;;;;;;;3.97;3.60;;;;;;;9.44;100.00;101739.56;4973348;28;20165;-72
2021/11/19 06:37:07;;;;;;;5.20;4.80;;;;;;;9.44;100.00;101754.03;4973626;28;20244;-72
2021/11/19 06:39:33;;;;;;;4.57;4.27;;;;;;;9.45;100.00;101769.28;4973437;28;20228;-72
2021/11/19 06:41:58;;;;;;;4.10;3.80;;;;;;;9.45;100.00;101752.94;4973473;28;20170;-72
2021/11/19 06:44:23;;;;;;;13.30;3.87;;;;;;;9.46;100.00;101770.09;4973361;28;20206;-73
2021/11/19 06:46:49;;;;;;;3.67;3.37;;;;;;;9.45;100.00;101769.28;4973293;28;20174;-72
2021/11/19 06:49:16;;;;;;;3.77;3.10;;;;;;;9.47;100.00;101761.66;4973212;28;20201;-72
2021/11/19 06:51:41;;;;;;;3.30;3.10;;;;;;;9.46;100.00;101748.28;4973241;28;20210;-73
2021/11/19 06:54:07;;;;;;;3.83;3.53;;;;;;;9.45;100.00;101754.84;4973117;28;20200;-72
2021/11/19 06:56:34;;;;;;;4.77;4.37;;;;;;;9.46;100.00;101749.09;4972766;28;20186;-72
2021/11/19 06:59:00;;;;;;;5.13;4.63;;;;;;;9.46;100.00;101775.56;4973181;28;20626;-73
2021/11/19 07:01:25;;;;;;;5.30;4.60;;;;;;;9.46;100.00;101765.47;4973199;28;20208;-73
2021/11/19 07:03:51;;;;;;;4.03;3.70;;;;;;;9.45;100.00;101774.75;4972996;28;20178;-72
2021/11/19 07:06:17;;;;;;;6.13;5.60;;;;;;;9.46;100.00;101767.38;4972807;28;20241;-72
2021/11/19 07:08:42;;;;;;;3.87;3.57;;;;;;;9.45;100.00;101780.19;4972888;28;20201;-73
2021/11/19 07:11:12;;;;;;;4.20;3.93;;;;;;;9.46;100.00;101787.28;4972860;28;20182;-72
2021/11/19 07:13:37;;;;;;;4.80;2.67;;;;;;;9.47;100.00;101761.66;4971783;28;20570;-73
2021/11/19 07:16:03;;;;;;;6.50;4.97;;;;;;;9.46;100.00;101770.94;4972620;28;20312;-72
2021/11/19 07:18:29;;;;;;;1.70;1.70;;;;;;;9.46;100.00;101759.19;4971951;28;20170;-72
2021/11/19 07:20:55;;;;;;;2.50;2.33;;;;;;;9.47;100.00;101766.28;4972849;28;20185;-73
2021/11/19 07:23:21;;;;;;;6.73;2.53;;;;;;;9.48;100.00;101781.56;4972582;28;20253;-72
2021/11/19 07:25:47;;;;;;;4.53;3.33;;;;;;;9.48;100.00;101782.38;4972382;28;20181;-73
2021/11/19 07:28:13;;;;;;;3.07;2.63;;;;;;;9.48;100.00;101773.38;4972641;28;20696;-73
2021/11/19 07:30:44;;;;;;;4.60;2.77;;;;;;;9.48;100.00;101776.94;4972589;28;20711;-73
2021/11/19 07:33:09;;;;;;;1.63;1.53;;;;;;;9.49;100.00;101794.13;4972654;28;20173;-72
2021/11/19 07:35:36;;;;;;;1.90;1.73;;;;;;;9.49;100.00;101773.09;4972276;28;20177;-72
2021/11/19 07:38:02;;;;;;;5.33;4.83;;;;;;;9.50;100.00;101788.38;4971123;28;20190;-72
2021/11/19 07:40:30;;;;;;;2.73;2.53;;;;;;;9.49;100.00;101805.03;4972552;28;20216;-72
2021/11/19 07:42:55;;;;;;;3.80;3.27;;;;;;;9.52;100.00;101793.56;4972374;28;20178;-73
2021/11/19 07:45:21;;;;;;;2.87;2.63;;;;;;;9.52;100.00;101790.84;4972446;28;20181;-73
2021/11/19 07:47:49;;;;;;;4.03;3.73;;;;;;;9.53;100.00;101814.28;4972625;28;20205;-72
2021/11/19 07:50:18;;;;;;;1.13;1.13;;;;;;;9.52;100.00;101799.84;4972137;28;20599;-73
2021/11/19 07:52:44;;;;;;;4.13;3.80;;;;;;;9.54;100.00;101800.38;4968451;28;20237;-72
2021/11/19 07:55:09;;;;;;;0.53;0.53;;;;;;;9.53;100.00;101790.56;4972223;28;20594;-72
2021/11/19 07:57:35;;;;;;;2.43;2.27;;;;;;;9.54;100.00;101822.22;4972362;28;20221;-73
2021/11/19 08:00:07;;;;;;;2.10;1.93;;;;;;;9.56;100.00;101815.69;4972137;28;20258;-72
2021/11/19 08:02:32;;;;;;;2.30;1.67;;;;;;;9.53;100.00;101798.75;4972016;28;20182;-73
2021/11/19 08:04:58;;;;;;;1.90;1.80;;;;;;;9.53;100.00;101812.38;4971996;28;20193;-72
2021/11/19 08:07:23;;;;;;;2.10;2.00;;;;;;;9.52;100.00;101820.84;4972290;28;20316;-72
2021/11/19 08:09:49;;;;;;;1.30;1.20;;;;;;;9.51;100.00;101803.66;4970617;28;20289;-72
2021/11/19 08:12:14;;;;;;;1.90;1.47;;;;;;;9.53;100.00;101827.94;4972126;28;20178;-72
2021/11/19 08:14:39;;;;;;;1.57;1.47;;;;;;;9.55;100.00;101809.41;4972084;28;20185;-72
2021/11/19 08:17:18;;;;;;;4.03;3.70;;;;;;;9.56;100.00;101808.31;4972133;28;20189;-72
2021/11/19 08:19:44;;;;;;;2.27;2.07;;;;;;;9.58;100.00;101816.25;4972181;28;20173;-72
2021/11/19 08:22:12;;;;;;;4.53;3.03;;;;;;;9.62;100.00;101807.22;4972020;28;20174;-72
2021/11/19 08:24:37;;;;;;;2.57;2.20;;;;;;;9.64;100.00;101812.41;4971948;28;20269;-72
2021/11/19 08:27:10;;;;;;;1.70;1.60;;;;;;;9.66;100.00;101827.41;4971892;28;20602;-72
2021/11/19 08:29:37;;;;;;;2.97;2.77;;;;;;;9.68;100.00;101819.78;4973337;28;20218;-71
2021/11/19 08:32:05;;;;;;;1.10;1.10;;;;;;;9.73;100.00;101818.97;4975890;28;20260;-72
2021/11/19 08:34:31;;;;;;;3.17;2.87;;;;;;;9.77;100.00;101825.53;4975752;28;20222;-72
2021/11/19 08:36:57;;;;;;;1.60;1.50;;;;;;;9.79;100.00;101828.81;4975585;28;20209;-71
2021/11/19 08:39:25;;;;;;;3.17;2.90;;;;;;;9.81;100.00;101815.69;4975947;28;20169;-72
2021/11/19 08:41:51;;;;;;;2.37;2.17;;;;;;;9.84;100.00;101816.00;4975900;28;20202;-72
2021/11/19 08:44:19;;;;;;;1.43;1.33;;;;;;;9.88;100.00;101821.72;4975803;28;20257;-72
2021/11/19 08:46:47;;;;;;;2.67;2.57;;;;;;;9.89;100.00;101837.00;4975574;28;20166;-72
2021/11/19 08:49:20;;;;;;;1.90;1.80;;;;;;;9.90;100.00;101832.34;4975737;28;20190;-72
2021/11/19 08:51:46;;;;;;;5.63;4.13;;;;;;;9.92;100.00;101831.00;4975642;28;20166;-72
2021/11/19 08:54:16;;;;;;;1.73;1.63;;;;;;;9.95;100.00;101835.09;4975617;28;20170;-72
2021/11/19 08:56:45;;;;;;;1.87;1.77;;;;;;;9.96;100.00;101829.34;4975565;28;20209;-72
2021/11/19 08:59:13;;;;;;;1.10;1.10;;;;;;;9.98;100.00;101862.69;4975272;28;20185;-72
2021/11/19 09:01:40;;;;;;;2.60;2.40;;;;;;;10.01;100.00;101867.59;4975094;28;20170;-72
2021/11/19 09:04:06;;;;;;;3.10;2.80;;;;;;;10.03;100.00;101857.22;4975866;28;20193;-72
2021/11/19 09:06:32;;;;;;;2.70;2.50;;;;;;;10.05;100.00;101865.94;4975550;28;20564;-72
2021/11/19 09:08:58;;;;;;;1.40;1.30;;;;;;;10.07;100.00;101862.94;4975352;28;20198;-71
2021/11/19 09:11:25;;;;;;;2.73;2.53;;;;;;;10.07;100.00;101869.22;4975473;28;20279;-68
2021/11/19 09:13:53;;;;;;;2.17;1.70;;;;;;;10.09;100.00;101866.22;4966163;28;20273;-72
2021/11/19 09:16:22;;;;;;;3.67;3.40;;;;;;;10.10;100.00;101863.19;4956110;28;20593;-72
2021/11/19 09:19:08;;;;;;;2.53;2.33;;;;;;;10.12;100.00;101860.19;4956159;28;20190;-71
2021/11/19 09:22:04;;;;;;;2.47;2.33;;;;;;;10.14;100.00;101860.78;4958817;28;20174;-72
2021/11/19 09:24:32;;;;;;;2.80;2.60;;;;;;;10.17;100.00;101853.94;4964542;28;20167;-72
2021/11/19 09:27:09;;;;;;;4.80;3.90;;;;;;;10.21;100.00;101863.22;4959894;28;20657;-72
2021/11/19 09:29:43;;;;;;;3.77;3.47;;;;;;;10.23;100.00;101866.50;4954897;28;20272;-72
2021/11/19 09:32:09;;;;;;;2.43;2.23;;;;;;;10.22;100.00;101870.34;4955655;28;20213;-72
2021/11/19 09:34:38;;;;;;;3.30;2.93;;;;;;;10.23;100.00;101858.31;4955630;28;20170;-72
2021/11/19 09:37:06;;;;;;;2.43;2.33;;;;;;;10.27;100.00;101868.44;4955576;28;20269;-72
2021/11/19 09:39:32;;;;;;;5.57;4.40;;;;;;;10.26;100.00;101864.03;4955483;28;20698;-72
2021/11/19 09:41:58;;;;;;;6.17;5.57;;;;;;;10.28;100.00;101867.34;4954976;28;20265;-72
2021/11/19 09:44:46;;;;;;;3.30;3.07;;;;;;;10.29;100.00;101873.63;4955331;28;20261;-72
2021/11/19 09:47:32;;;;;;;2.03;1.93;;;;;;;10.30;100.00;101865.16;4955511;28;20634;-71
2021/11/19 09:50:29;;;;;;;3.03;2.80;;;;;;;10.33;100.00;101861.06;4955252;28;20202;-71
2021/11/19 09:52:57;;;;;;;3.10;2.83;;;;;;;10.35;100.00;101861.59;4955138;28;20174;-71
2021/11/19 09:55:56;;;;;;;2.97;2.77;;;;;;;10.39;100.00;101868.13;4954813;28;20172;-73
2021/11/19 09:58:39;;;;;;;6.97;3.03;;;;;;;10.43;100.00;101869.25;4955058;28;20820;-72
2021/11/19 10:01:47;;;;;;;3.40;3.10;;;;;;;10.45;100.00;101872.50;4955081;28;20171;-72
2021/11/19 10:04:18;;;;;;;3.63;3.40;;;;;;;10.47;100.00;101875.78;4953385;28;20553;-71
2021/11/19 10:07:10;;;;;;;5.33;4.80;;;;;;;10.53;100.00;101863.75;4954839;28;20291;-72
2021/11/19 10:09:48;;;;;;;2.20;2.10;;;;;;;10.55;100.00;101869.75;4954768;28;20221;-71
2021/11/19 10:12:30;;;;;;;2.37;2.27;;;;;;;10.59;100.00;101854.47;4962169;28;20236;-72
2021/11/19 10:15:08;;;;;;;2.10;2.00;;;;;;;10.63;100.00;101868.38;4967627;28;20190;-72
2021/11/19 10:17:41;;;;;;;3.17;2.87;;;;;;;10.64;100.00;101856.34;4973793;28;20181;-72
2021/11/19 10:20:27;;;;;;;3.07;2.87;;;;;;;10.67;100.00;101855.78;4973868;28;20241;-72
2021/11/19 10:22:57;;;;;;;4.27;3.70;;;;;;;10.72;100.00;101840.22;4973696;28;20174;-72
2021/11/19 10:25:38;;;;;;;7.60;2.40;;;;;;;10.75;100.00;101847.03;4972561;28;20533;-72
2021/11/19 10:28:13;;;;;;;2.83;2.33;;;;;;;10.81;100.00;101856.03;4973739;28;20174;-72
2021/11/19 10:30:46;;;;;;;2.93;2.33;;;;;;;10.82;100.00;101850.28;4973637;28;20569;-72
2021/11/19 10:33:33;;;;;;;7.00;6.10;;;;;;;10.88;100.00;101845.63;4971628;28;20701;-72
2021/11/19 10:36:04;;;;;;;4.53;4.17;;;;;;;10.88;100.00;101845.63;4973342;28;20169;-72
2021/11/19 10:39:01;;;;;;;6.00;5.47;;;;;;;10.90;100.00;101837.97;4973142;28;20185;-72
2021/11/19 10:42:08;;;;;;;2.93;2.37;;;;;;;10.93;100.00;101840.94;4973706;28;20182;-72
2021/11/19 10:44:52;;;;;;;2.70;2.50;;;;;;;10.94;100.00;101836.28;4970054;28;20193;-72
2021/11/19 10:47:52;;;;;;;4.13;3.87;;;;;;;10.99;100.00;101839.00;4973450;28;20272;-72
2021/11/19 10:50:17;;;;;;;3.23;3.00;;;;;;;11.03;100.00;101823.69;4970045;28;20676;-72
2021/11/19 10:53:08;;;;;;;5.40;5.07;;;;;;;11.01;100.00;101825.91;4973298;28;20170;-72
2021/11/19 10:56:05;;;;;;;3.07;2.87;;;;;;;11.07;100.00;101843.91;4971242;28;20194;-72
2021/11/19 10:58:45;;;;;;;11.37;4.53;;;;;;;11.06;100.00;101833.25;4968449;28;20186;-72
2021/11/19 11:01:13;;;;;;;3.13;2.80;;;;;;;11.06;100.00;101834.06;4973112;28;20181;-72
2021/11/19 11:03:59;;;;;;;4.33;3.93;;;;;;;11.07;100.00;101830.22;4972920;28;20185;-72
2021/11/19 11:06:43;;;;;;;3.73;3.43;;;;;;;11.06;100.00;101825.84;4972783;28;20209;-72
2021/11/19 11:09:23;;;;;;;5.87;5.37;;;;;;;11.07;100.00;101829.41;4972858;28;20205;-72
2021/11/19 11:12:08;;;;;;;3.70;3.43;;;;;;;11.09;100.00;101829.94;4972809;28;20256;-72
2021/11/19 11:14:39;;;;;;;3.03;2.80;;;;;;;11.09;100.00;101814.34;4972958;28;20178;-69
2021/11/19 11:17:18;;;;;;;3.30;3.10;;;;;;;11.11;100.00;101825.00;4971590;28;20264;-74
2021/11/19 11:19:47;;;;;;;7.57;4.17;;;;;;;11.10;100.00;101828.84;4972781;28;20526;-73
2021/11/19 11:22:17;;;;;;;7.37;5.20;;;;;;;11.07;100.00;101832.16;4972352;28;20507;-73
2021/11/19 11:24:51;;;;;;;6.03;5.47;;;;;;;11.04;100.00;101822.59;4972389;28;20204;-72
2021/11/19 11:27:51;;;;;;;4.37;4.07;;;;;;;11.02;100.00;101835.72;4972886;28;20585;-72
2021/11/19 11:30:24;;;;;;;3.87;3.57;;;;;;;10.99;100.00;101819.84;4972436;28;20863;-73
2021/11/19 11:33:05;;;;;;;4.50;4.10;;;;;;;10.98;100.00;101832.72;4972670;28;20257;-73
2021/11/19 11:35:51;;;;;;;3.03;2.37;;;;;;;10.97;100.00;101817.41;4972359;28;20175;-73
2021/11/19 11:38:31;;;;;;;2.73;2.53;;;;;;;10.96;100.00;101832.19;4972996;28;20617;-73
2021/11/19 11:41:17;;;;;;;4.27;3.97;;;;;;;10.96;100.00;101825.91;4972487;28;20185;-74
2021/11/19 11:44:06;;;;;;;2.30;2.07;;;;;;;10.93;100.00;101830.00;4972522;28;20173;-72